Time,TemperatureF,DewpointF,PressureIn,WindDirection,WindDirectionDegrees,WindSpeedMPH,WindSpeedGustMPH,Humidity,HourlyPrecipIn,Conditions,Clouds,dailyrainin,SoftwareType,DateUTC
2013-09-18 00:09:00,76.6,73.4,30.04,NNE,25,0.0,6.0,90,0.00,,,0.00,Weather View 32 v70,2013-09-18 04:09:00,
2013-09-18 00:19:00,76.4,73.6,30.04,NNE,24,1.0,6.0,91,0.00,,,0.00,Weather View 32 v70,2013-09-18 04:19:00,
2013-09-18 00:29:00,76.5,73.3,30.04,NNE,27,0.0,6.0,90,0.00,,,0.00,Weather View 32 v70,2013-09-18 04:29:00,
2013-09-18 00:39:00,76.4,73.2,30.04,North,10,0.0,6.0,90,0.00,,,0.00,Weather View 32 v70,2013-09-18 04:39:00,
2013-09-18 00:49:00,75.9,72.7,30.04,North,10,0.0,6.0,90,0.00,,,0.00,Weather View 32 v70,2013-09-18 04:49:00,
2013-09-18 00:59:00,75.5,72.7,30.04,North,10,0.0,6.0,91,0.00,,,0.00,Weather View 32 v70,2013-09-18 04:59:00,
2013-09-18 01:09:00,75.2,72.7,30.04,North,10,0.0,3.0,92,0.00,,,0.00,Weather View 32 v70,2013-09-18 05:09:00,
2013-09-18 01:19:00,75.4,72.9,30.03,NNE,15,0.0,3.0,92,0.00,,,0.00,Weather View 32 v70,2013-09-18 05:19:00,
2013-09-18 01:29:00,75.4,72.9,30.03,NNE,15,0.0,3.0,92,0.00,,,0.00,Weather View 32 v70,2013-09-18 05:29:00,
2013-09-18 01:39:00,75.6,73.1,30.03,North,355,2.0,3.0,92,0.00,,,0.00,Weather View 32 v70,2013-09-18 05:39:00,
2013-09-18 01:49:00,75.8,73.3,30.03,NE,37,3.0,4.0,92,0.00,,,0.00,Weather View 32 v70,2013-09-18 05:49:00,
2013-09-18 01:59:00,75.9,73.4,30.03,NNE,13,2.0,4.0,92,0.00,,,0.00,Weather View 32 v70,2013-09-18 05:59:00,
2013-09-18 02:09:00,75.6,73.1,30.02,North,5,0.0,4.0,92,0.00,,,0.00,Weather View 32 v70,2013-09-18 06:09:00,
2013-09-18 02:19:00,75.3,72.8,30.02,North,9,0.0,4.0,92,0.00,,,0.00,Weather View 32 v70,2013-09-18 06:19:00,
2013-09-18 02:29:00,75.4,72.9,30.03,North,9,0.0,4.0,92,0.00,,,0.00,Weather View 32 v70,2013-09-18 06:29:00,
2013-09-18 02:39:00,75.6,73.1,30.03,North,9,0.0,4.0,92,0.00,,,0.00,Weather View 32 v70,2013-09-18 06:39:00,
2013-09-18 02:49:00,75.6,73.1,30.03,NE,36,2.0,4.0,92,0.00,,,0.00,Weather View 32 v70,2013-09-18 06:49:00,
2013-09-18 02:59:00,75.7,72.9,30.02,NNE,14,4.0,7.0,91,0.00,,,0.00,Weather View 32 v70,2013-09-18 06:59:00,
2013-09-18 03:09:00,75.7,72.9,30.02,NNE,24,0.0,7.0,91,0.00,,,0.00,Weather View 32 v70,2013-09-18 07:09:00,
2013-09-18 03:19:00,75.6,72.4,30.02,North,10,0.0,7.0,90,0.00,,,0.00,Weather View 32 v70,2013-09-18 07:19:00,
2013-09-18 03:29:00,75.7,72.9,30.02,North,5,0.0,7.0,91,0.00,,,0.00,Weather View 32 v70,2013-09-18 07:29:00,
2013-09-18 03:30:00,75.7,72.9,30.02,North,5,0.0,7.0,91,0.00,,,0.00,Weather View 32 v70,2013-09-18 07:30:00,
2013-09-18 03:39:00,75.2,72.4,30.02,North,360,0.0,7.0,91,0.00,,,0.00,Weather View 32 v70,2013-09-18 07:39:00,
2013-09-18 03:49:00,74.8,72.3,30.02,North,11,0.0,7.0,92,0.00,,,0.00,Weather View 32 v70,2013-09-18 07:49:00,
2013-09-18 03:59:00,74.5,72.3,30.02,NNE,16,0.0,5.0,93,0.00,,,0.00,Weather View 32 v70,2013-09-18 07:59:00,
2013-09-18 04:09:00,74.1,71.9,30.01,NNW,327,0.0,5.0,93,0.00,,,0.00,Weather View 32 v70,2013-09-18 08:09:00,
2013-09-18 04:19:00,73.7,71.9,30.01,NW,308,0.0,3.0,94,0.00,,,0.00,Weather View 32 v70,2013-09-18 08:19:00,
2013-09-18 04:29:00,73.6,71.8,30.01,NW,308,0.0,2.0,94,0.00,,,0.00,Weather View 32 v70,2013-09-18 08:29:00,
2013-09-18 04:39:00,73.6,72.1,30.01,NNW,331,0.0,2.0,95,0.00,,,0.00,Weather View 32 v70,2013-09-18 08:39:00,
2013-09-18 04:49:00,73.7,72.2,30.02,West,280,0.0,3.0,95,0.00,,,0.00,Weather View 32 v70,2013-09-18 08:49:00,
2013-09-18 04:59:00,73.8,72.3,30.02,NNE,13,2.0,4.0,95,0.00,,,0.00,Weather View 32 v70,2013-09-18 08:59:00,
2013-09-18 05:09:00,74.1,72.6,30.02,NNW,330,1.0,7.0,95,0.00,,,0.00,Weather View 32 v70,2013-09-18 09:09:00,
2013-09-18 05:19:00,74.6,72.8,30.02,NNE,15,1.0,7.0,94,0.00,,,0.00,Weather View 32 v70,2013-09-18 09:19:00,
2013-09-18 05:29:00,75.0,73.1,30.02,NNW,348,4.0,7.0,94,0.00,,,0.00,Weather View 32 v70,2013-09-18 09:29:00,
2013-09-18 05:31:00,75.0,73.1,30.02,NNW,348,4.0,7.0,94,0.00,,,0.00,Weather View 32 v70,2013-09-18 09:31:00,
2013-09-18 05:39:00,75.1,72.9,30.01,NNE,22,2.0,10.0,93,0.00,,,0.00,Weather View 32 v70,2013-09-18 09:39:00,
2013-09-18 05:49:00,75.1,72.6,30.02,North,355,3.0,10.0,92,0.00,,,0.00,Weather View 32 v70,2013-09-18 09:49:00,
2013-09-18 05:59:00,75.0,72.5,30.02,North,355,4.0,10.0,92,0.00,,,0.00,Weather View 32 v70,2013-09-18 09:59:00,
2013-09-18 06:09:00,74.8,72.3,30.02,North,360,2.0,10.0,92,0.00,,,0.00,Weather View 32 v70,2013-09-18 10:09:00,
2013-09-18 06:19:00,74.9,72.4,30.03,NNE,33,2.0,10.0,92,0.00,,,0.00,Weather View 32 v70,2013-09-18 10:19:00,
2013-09-18 06:29:00,74.9,72.4,30.03,NE,37,3.0,10.0,92,0.00,,,0.00,Weather View 32 v70,2013-09-18 10:29:00,
2013-09-18 06:32:00,74.9,72.4,30.03,NE,37,3.0,10.0,92,0.00,,,0.00,Weather View 32 v70,2013-09-18 10:32:00,
2013-09-18 06:39:00,74.8,72.3,30.03,North,351,2.0,10.0,92,0.00,,,0.00,Weather View 32 v70,2013-09-18 10:39:00,
2013-09-18 06:49:00,74.6,72.8,30.03,NNE,22,0.0,8.0,94,0.00,,,0.00,Weather View 32 v70,2013-09-18 10:49:00,
2013-09-18 06:59:00,74.6,72.8,30.03,NNE,29,2.0,8.0,94,0.00,,,0.00,Weather View 32 v70,2013-09-18 10:59:00,
2013-09-18 07:09:00,74.4,72.6,30.03,NE,38,0.0,8.0,94,0.00,,,0.00,Weather View 32 v70,2013-09-18 11:09:00,
2013-09-18 07:19:00,74.4,72.6,30.04,NNE,16,3.0,6.0,94,0.00,,,0.00,Weather View 32 v70,2013-09-18 11:19:00,
2013-09-18 07:29:00,74.2,72.4,30.04,North,360,1.0,6.0,94,0.00,,,0.00,Weather View 32 v70,2013-09-18 11:29:00,
2013-09-18 07:39:00,74.2,72.4,30.04,NE,38,0.0,6.0,94,0.00,,,0.00,Weather View 32 v70,2013-09-18 11:39:00,
2013-09-18 07:49:00,74.3,72.8,30.05,North,355,0.0,6.0,95,0.00,,,0.00,Weather View 32 v70,2013-09-18 11:49:00,
2013-09-18 07:59:00,74.5,73.0,30.05,North,360,0.0,6.0,95,0.00,,,0.00,Weather View 32 v70,2013-09-18 11:59:00,
2013-09-18 08:09:00,74.6,73.1,30.06,NNE,15,1.0,6.0,95,0.00,,,0.00,Weather View 32 v70,2013-09-18 12:09:00,
2013-09-18 08:19:00,74.7,73.2,30.05,North,5,3.0,6.0,95,0.00,,,0.00,Weather View 32 v70,2013-09-18 12:19:00,
2013-09-18 08:29:00,74.8,72.9,30.05,North,9,2.0,6.0,94,0.00,,,0.00,Weather View 32 v70,2013-09-18 12:29:00,
2013-09-18 08:39:00,74.9,73.0,30.05,NNE,32,4.0,6.0,94,0.00,,,0.00,Weather View 32 v70,2013-09-18 12:39:00,
2013-09-18 08:49:00,74.9,73.0,30.05,NNE,19,2.0,6.0,94,0.00,,,0.00,Weather View 32 v70,2013-09-18 12:49:00,
2013-09-18 08:59:00,74.9,73.0,30.06,NNE,16,4.0,7.0,94,0.00,,,0.00,Weather View 32 v70,2013-09-18 12:59:00,
2013-09-18 09:09:00,74.9,73.4,30.05,NNE,26,5.0,7.0,95,0.00,,,0.00,Weather View 32 v70,2013-09-18 13:09:00,
2013-09-18 09:19:00,75.4,73.5,30.05,NNE,22,3.0,9.0,94,0.00,,,0.00,Weather View 32 v70,2013-09-18 13:19:00,
2013-09-18 09:29:00,76.2,74.0,30.06,North,360,3.0,9.0,93,0.00,,,0.00,Weather View 32 v70,2013-09-18 13:29:00,
2013-09-18 09:33:00,76.2,74.0,30.06,North,360,3.0,9.0,93,0.00,,,0.00,Weather View 32 v70,2013-09-18 13:33:00,
2013-09-18 09:39:00,77.1,74.3,30.06,NNE,24,6.0,10.0,91,0.00,,,0.00,Weather View 32 v70,2013-09-18 13:39:00,
2013-09-18 09:49:00,77.4,73.9,30.06,NE,43,1.0,10.0,89,0.00,,,0.00,Weather View 32 v70,2013-09-18 13:49:00,
2013-09-18 09:59:00,77.8,73.9,30.07,NNE,19,4.0,12.0,88,0.00,,,0.00,Weather View 32 v70,2013-09-18 13:59:00,
2013-09-18 10:09:00,78.0,74.1,30.07,NNE,32,4.0,12.0,88,0.00,,,0.00,Weather View 32 v70,2013-09-18 14:09:00,
2013-09-18 10:19:00,78.0,74.1,30.07,NE,41,4.0,12.0,88,0.00,,,0.00,Weather View 32 v70,2013-09-18 14:19:00,
2013-09-18 10:29:00,78.4,74.5,30.09,North,360,12.0,12.0,88,0.00,,,0.00,Weather View 32 v70,2013-09-18 14:29:00,
2013-09-18 10:34:00,78.4,74.5,30.09,North,360,12.0,12.0,88,0.00,,,0.00,Weather View 32 v70,2013-09-18 14:34:00,
2013-09-18 10:39:00,77.6,74.1,30.09,North,9,5.0,13.0,89,0.00,,,0.00,Weather View 32 v70,2013-09-18 14:39:00,
2013-09-18 10:49:00,78.0,73.8,30.09,NNE,18,5.0,15.0,87,0.00,,,0.00,Weather View 32 v70,2013-09-18 14:49:00,
2013-09-18 10:59:00,77.4,72.9,30.09,North,360,10.0,16.0,86,0.01,,,0.01,Weather View 32 v70,2013-09-18 14:59:00,
2013-09-18 11:09:00,77.9,73.4,30.09,NNE,23,10.0,16.0,86,0.01,,,0.01,Weather View 32 v70,2013-09-18 15:09:00,
2013-09-18 11:19:00,77.0,72.5,30.09,North,350,9.0,17.0,86,0.01,,,0.01,Weather View 32 v70,2013-09-18 15:19:00,
2013-09-18 11:34:00,77.0,72.8,30.09,NNW,342,9.0,17.0,87,0.01,,,0.01,Weather View 32 v70,2013-09-18 15:34:00,
2013-09-18 11:39:00,77.9,73.4,30.09,NE,36,6.0,17.0,86,0.01,,,0.01,Weather View 32 v70,2013-09-18 15:39:00,
2013-09-18 11:49:00,78.8,73.2,30.09,NE,52,8.0,17.0,83,0.01,,,0.01,Weather View 32 v70,2013-09-18 15:49:00,
2013-09-18 11:59:00,78.8,73.2,30.09,NE,53,2.0,17.0,83,0.00,,,0.01,Weather View 32 v70,2013-09-18 15:59:00,
2013-09-18 12:09:00,78.7,73.1,30.09,ENE,77,9.0,17.0,83,0.00,,,0.01,Weather View 32 v70,2013-09-18 16:09:00,
2013-09-18 12:19:00,79.5,73.9,30.09,NE,50,6.0,15.0,83,0.00,,,0.01,Weather View 32 v70,2013-09-18 16:19:00,
2013-09-18 12:29:00,80.3,74.3,30.08,North,11,12.0,15.0,82,0.00,,,0.01,Weather View 32 v70,2013-09-18 16:29:00,
2013-09-18 12:35:00,80.3,74.3,30.08,North,11,12.0,15.0,82,0.00,,,0.01,Weather View 32 v70,2013-09-18 16:35:00,
2013-09-18 12:39:00,80.7,74.7,30.08,NE,36,12.0,15.0,82,0.00,,,0.01,Weather View 32 v70,2013-09-18 16:39:00,
2013-09-18 12:49:00,81.5,74.3,30.07,North,11,7.0,15.0,79,0.00,,,0.01,Weather View 32 v70,2013-09-18 16:49:00,
2013-09-18 12:59:00,81.4,74.6,30.07,NE,43,5.0,15.0,80,0.00,,,0.01,Weather View 32 v70,2013-09-18 16:59:00,
2013-09-18 13:09:00,81.0,74.2,30.07,NNE,14,6.0,15.0,80,0.00,,,0.01,Weather View 32 v70,2013-09-18 17:09:00,
2013-09-18 13:10:00,81.0,74.2,30.07,NNE,14,6.0,15.0,80,0.00,,,0.01,Weather View 32 v70,2013-09-18 17:10:00,
2013-09-18 13:19:00,80.8,74.0,30.07,ENE,69,8.0,16.0,80,0.00,,,0.01,Weather View 32 v70,2013-09-18 17:19:00,
2013-09-18 13:29:00,81.0,74.2,30.06,ENE,77,5.0,16.0,80,0.00,,,0.01,Weather View 32 v70,2013-09-18 17:29:00,
2013-09-18 13:36:00,81.0,74.2,30.06,ENE,77,5.0,16.0,80,0.00,,,0.01,Weather View 32 v70,2013-09-18 17:36:00,
2013-09-18 13:49:00,82.0,72.9,30.06,NNE,32,8.0,19.0,74,0.00,,,0.01,Weather View 32 v70,2013-09-18 17:49:00,
2013-09-18 13:59:00,81.8,72.3,30.06,ENE,58,9.0,19.0,73,0.00,,,0.01,Weather View 32 v70,2013-09-18 17:59:00,
2013-09-18 14:09:00,82.6,73.4,30.05,ENE,60,11.0,19.0,74,0.00,,,0.01,Weather View 32 v70,2013-09-18 18:09:00,
2013-09-18 14:19:00,82.7,72.7,30.05,NE,44,4.0,19.0,72,0.00,,,0.01,Weather View 32 v70,2013-09-18 18:19:00,
2013-09-18 14:29:00,82.9,73.3,30.05,NE,39,9.0,19.0,73,0.00,,,0.01,Weather View 32 v70,2013-09-18 18:29:00,
2013-09-18 14:37:00,82.9,73.3,30.05,NE,39,9.0,19.0,73,0.00,,,0.01,Weather View 32 v70,2013-09-18 18:37:00,
2013-09-18 14:39:00,82.6,73.8,30.05,NNE,13,8.0,19.0,75,0.00,,,0.01,Weather View 32 v70,2013-09-18 18:39:00,
2013-09-18 14:49:00,79.6,73.6,30.05,NNE,26,6.0,19.0,82,0.00,,,0.01,Weather View 32 v70,2013-09-18 18:49:00,
2013-09-18 14:59:00,80.2,74.9,30.04,North,360,11.0,19.0,84,0.00,,,0.01,Weather View 32 v70,2013-09-18 18:59:00,
2013-09-18 15:09:00,80.8,74.8,30.04,NNE,31,9.0,19.0,82,0.00,,,0.01,Weather View 32 v70,2013-09-18 19:09:00,
2013-09-18 15:19:00,80.9,74.9,30.04,NE,40,7.0,19.0,82,0.00,,,0.01,Weather View 32 v70,2013-09-18 19:19:00,
2013-09-18 15:29:00,81.2,74.8,30.04,NNE,27,9.0,19.0,81,0.00,,,0.01,Weather View 32 v70,2013-09-18 19:29:00,
2013-09-18 15:37:00,81.2,74.8,30.04,NNE,27,9.0,19.0,81,0.00,,,0.01,Weather View 32 v70,2013-09-18 19:37:00,
2013-09-18 15:49:00,80.2,74.2,30.04,NNW,346,11.0,18.0,82,0.00,,,0.01,Weather View 32 v70,2013-09-18 19:49:00,
2013-09-18 15:59:00,77.4,72.9,30.05,NNE,22,12.0,25.0,86,0.01,,,0.02,Weather View 32 v70,2013-09-18 19:59:00,
2013-09-18 16:09:00,75.1,72.0,30.04,NNE,15,4.0,25.0,90,0.02,,,0.03,Weather View 32 v70,2013-09-18 20:09:00,
2013-09-18 16:19:00,74.9,71.8,30.04,NE,34,8.0,25.0,90,0.02,,,0.03,Weather View 32 v70,2013-09-18 20:19:00,
2013-09-18 16:29:00,75.7,72.2,30.04,NE,54,3.0,25.0,89,0.02,,,0.03,Weather View 32 v70,2013-09-18 20:29:00,
2013-09-18 16:38:00,75.7,72.2,30.04,NE,54,3.0,25.0,89,0.02,,,0.03,Weather View 32 v70,2013-09-18 20:38:00,
2013-09-18 16:39:00,76.8,74.3,30.04,NNE,22,3.0,25.0,92,0.02,,,0.03,Weather View 32 v70,2013-09-18 20:39:00,
2013-09-18 16:49:00,77.0,74.2,30.03,North,360,4.0,25.0,91,0.02,,,0.03,Weather View 32 v70,2013-09-18 20:49:00,
2013-09-18 17:00:00,76.8,74.3,30.03,NE,34,2.0,13.0,92,0.01,,,0.03,Weather View 32 v70,2013-09-18 21:00:00,
2013-09-18 17:09:00,77.2,74.7,30.03,NE,46,10.0,12.0,92,0.00,,,0.03,Weather View 32 v70,2013-09-18 21:09:00,
2013-09-18 17:19:00,77.4,74.9,30.03,NNE,32,2.0,12.0,92,0.01,,,0.04,Weather View 32 v70,2013-09-18 21:19:00,
2013-09-18 17:29:00,77.5,75.0,30.04,ENE,57,2.0,11.0,92,0.01,,,0.04,Weather View 32 v70,2013-09-18 21:29:00,
2013-09-18 17:38:00,77.5,75.0,30.04,ENE,57,2.0,11.0,92,0.01,,,0.04,Weather View 32 v70,2013-09-18 21:38:00,
2013-09-18 17:39:00,77.7,74.8,30.03,NE,42,6.0,11.0,91,0.01,,,0.04,Weather View 32 v70,2013-09-18 21:39:00,
2013-09-18 17:49:00,78.1,75.2,30.04,NE,43,8.0,11.0,91,0.01,,,0.04,Weather View 32 v70,2013-09-18 21:49:00,
2013-09-18 17:59:00,77.9,74.7,30.03,ENE,60,4.0,11.0,90,0.01,,,0.04,Weather View 32 v70,2013-09-18 21:59:00,
2013-09-18 18:09:00,77.8,74.6,30.04,NNE,26,6.0,11.0,90,0.01,,,0.04,Weather View 32 v70,2013-09-18 22:09:00,
2013-09-18 18:19:00,77.9,73.7,30.04,NNE,21,8.0,11.0,87,0.00,,,0.04,Weather View 32 v70,2013-09-18 22:19:00,
2013-09-18 18:29:00,78.2,73.3,30.04,ENE,57,8.0,13.0,85,0.00,,,0.04,Weather View 32 v70,2013-09-18 22:29:00,
2013-09-18 18:39:00,78.2,73.3,30.04,ENE,57,8.0,13.0,85,0.00,,,0.04,Weather View 32 v70,2013-09-18 22:39:00,
2013-09-18 18:49:00,77.9,72.7,30.05,NNE,14,4.0,13.0,84,0.00,,,0.04,Weather View 32 v70,2013-09-18 22:49:00,
2013-09-18 18:59:00,77.6,72.7,30.04,North,5,3.0,13.0,85,0.00,,,0.04,Weather View 32 v70,2013-09-18 22:59:00,
2013-09-18 19:09:00,77.3,72.1,30.04,NNW,337,6.0,13.0,84,0.00,,,0.04,Weather View 32 v70,2013-09-18 23:09:00,
2013-09-18 19:19:00,77.0,72.1,30.05,NNW,347,4.0,13.0,85,0.00,,,0.04,Weather View 32 v70,2013-09-18 23:19:00,
2013-09-18 19:29:00,76.7,72.2,30.04,North,11,2.0,13.0,86,0.00,,,0.04,Weather View 32 v70,2013-09-18 23:29:00,
2013-09-18 19:40:00,76.5,72.0,30.04,North,350,2.0,10.0,86,0.00,,,0.04,Weather View 32 v70,2013-09-18 23:40:00,
2013-09-18 19:49:00,76.2,71.7,30.04,NNE,31,4.0,9.0,86,0.00,,,0.04,Weather View 32 v70,2013-09-18 23:49:00,
2013-09-18 19:59:00,76.0,71.8,30.04,NNE,30,1.0,8.0,87,0.00,,,0.04,Weather View 32 v70,2013-09-18 23:59:00,
2013-09-18 20:09:00,75.7,71.5,30.04,North,10,3.0,8.0,87,0.00,,,0.04,Weather View 32 v70,2013-09-19 00:09:00,
2013-09-18 20:19:00,75.5,71.3,30.04,NNE,14,2.0,8.0,87,0.00,,,0.04,Weather View 32 v70,2013-09-19 00:19:00,
2013-09-18 20:39:00,75.3,71.1,30.06,North,360,5.0,8.0,87,0.00,,,0.04,Weather View 32 v70,2013-09-19 00:39:00,
2013-09-18 20:49:00,75.2,71.4,30.06,North,11,0.0,7.0,88,0.00,,,0.04,Weather View 32 v70,2013-09-19 00:49:00,
2013-09-18 20:59:00,75.0,70.8,30.06,North,355,0.0,7.0,87,0.00,,,0.04,Weather View 32 v70,2013-09-19 00:59:00,
2013-09-18 21:19:00,74.7,70.9,30.07,NNE,16,0.0,7.0,88,0.00,,,0.04,Weather View 32 v70,2013-09-19 01:19:00,
2013-09-18 21:29:00,74.6,70.5,30.07,NNE,15,0.0,7.0,87,0.00,,,0.04,Weather View 32 v70,2013-09-19 01:29:00,
2013-09-18 21:41:00,74.4,70.9,30.07,NNE,27,0.0,6.0,89,0.00,,,0.04,Weather View 32 v70,2013-09-19 01:41:00,
2013-09-18 21:50:00,74.4,70.6,30.07,North,11,1.0,5.0,88,0.00,,,0.04,Weather View 32 v70,2013-09-19 01:50:00,
2013-09-18 21:59:00,74.4,70.6,30.07,North,5,0.0,5.0,88,0.00,,,0.04,Weather View 32 v70,2013-09-19 01:59:00,
2013-09-18 22:09:00,74.1,70.6,30.07,North,10,0.0,3.0,89,0.00,,,0.04,Weather View 32 v70,2013-09-19 02:09:00,
2013-09-18 22:19:00,74.1,70.6,30.07,North,355,0.0,3.0,89,0.00,,,0.04,Weather View 32 v70,2013-09-19 02:19:00,
2013-09-18 22:29:00,74.0,70.5,30.06,North,355,0.0,3.0,89,0.00,,,0.04,Weather View 32 v70,2013-09-19 02:29:00,
2013-09-18 22:39:00,73.6,70.5,30.07,North,355,0.0,3.0,90,0.00,,,0.04,Weather View 32 v70,2013-09-19 02:39:00,
2013-09-18 22:42:00,73.6,70.5,30.07,North,355,0.0,3.0,90,0.00,,,0.04,Weather View 32 v70,2013-09-19 02:42:00,
2013-09-18 22:49:00,73.2,70.1,30.07,North,355,0.0,2.0,90,0.00,,,0.04,Weather View 32 v70,2013-09-19 02:49:00,
2013-09-18 22:59:00,72.6,69.8,30.07,North,355,0.0,2.0,91,0.00,,,0.04,Weather View 32 v70,2013-09-19 02:59:00,
2013-09-18 23:09:00,72.3,69.8,30.07,North,355,0.0,2.0,92,0.00,,,0.04,Weather View 32 v70,2013-09-19 03:09:00,
2013-09-18 23:19:00,72.0,69.5,30.07,North,355,0.0,2.0,92,0.00,,,0.04,Weather View 32 v70,2013-09-19 03:19:00,
2013-09-18 23:29:00,71.6,69.5,30.07,NNW,347,1.0,2.0,93,0.00,,,0.04,Weather View 32 v70,2013-09-19 03:29:00,
2013-09-18 23:39:00,71.3,69.2,30.06,WNW,296,2.0,2.0,93,0.00,,,0.04,Weather View 32 v70,2013-09-19 03:39:00,
2013-09-18 23:49:00,71.2,69.4,30.06,West,279,1.0,4.0,94,0.00,,,0.04,Weather View 32 v70,2013-09-19 03:49:00,